地図

経路データ

SID SEASON NUMBER BASIN SUBBASIN NAME ISO_TIME NATURE LAT LON WMO_WIND WMO_PRES WMO_AGENCY TRACK_TYPE DIST2LAND LANDFALL IFLAG USA_AGENCY USA_ATCF_ID USA_LAT USA_LON USA_RECORD USA_STATUS USA_WIND USA_PRES USA_SSHS USA_R34_NE USA_R34_SE USA_R34_SW USA_R34_NW USA_R50_NE USA_R50_SE USA_R50_SW USA_R50_NW USA_R64_NE USA_R64_SE USA_R64_SW USA_R64_NW USA_POCI USA_ROCI USA_RMW USA_EYE TOKYO_LAT TOKYO_LON TOKYO_GRADE TOKYO_WIND TOKYO_PRES TOKYO_R50_DIR TOKYO_R50_LONG TOKYO_R50_SHORT TOKYO_R30_DIR TOKYO_R30_LONG TOKYO_R30_SHORT TOKYO_LAND CMA_LAT CMA_LON CMA_CAT CMA_WIND CMA_PRES HKO_LAT HKO_LON HKO_CAT HKO_WIND HKO_PRES NEWDELHI_LAT NEWDELHI_LON NEWDELHI_GRADE NEWDELHI_WIND NEWDELHI_PRES NEWDELHI_CI NEWDELHI_DP NEWDELHI_POCI REUNION_LAT REUNION_LON REUNION_TYPE REUNION_WIND REUNION_PRES REUNION_TNUM REUNION_CI REUNION_RMW REUNION_R34_NE REUNION_R34_SE REUNION_R34_SW REUNION_R34_NW REUNION_R50_NE REUNION_R50_SE REUNION_R50_SW REUNION_R50_NW REUNION_R64_NE REUNION_R64_SE REUNION_R64_SW REUNION_R64_NW BOM_LAT BOM_LON BOM_TYPE BOM_WIND BOM_PRES BOM_TNUM BOM_CI BOM_RMW BOM_R34_NE BOM_R34_SE BOM_R34_SW BOM_R34_NW BOM_R50_NE BOM_R50_SE BOM_R50_SW BOM_R50_NW BOM_R64_NE BOM_R64_SE BOM_R64_SW BOM_R64_NW BOM_ROCI BOM_POCI BOM_EYE BOM_POS_METHOD BOM_PRES_METHOD NADI_LAT NADI_LON NADI_CAT NADI_WIND NADI_PRES WELLINGTON_LAT WELLINGTON_LON WELLINGTON_WIND WELLINGTON_PRES DS824_LAT DS824_LON DS824_STAGE DS824_WIND DS824_PRES TD9636_LAT TD9636_LON TD9636_STAGE TD9636_WIND TD9636_PRES TD9635_LAT TD9635_LON TD9635_WIND TD9635_PRES TD9635_ROCI NEUMANN_LAT NEUMANN_LON NEUMANN_CLASS NEUMANN_WIND NEUMANN_PRES MLC_LAT MLC_LON MLC_CLASS MLC_WIND MLC_PRES USA_GUST BOM_GUST BOM_GUST_PER REUNION_GUST REUNION_GUST_PER USA_SEAHGT USA_SEARAD_NE USA_SEARAD_SE USA_SEARAD_SW USA_SEARAD_NW STORM_SPEED STORM_DIR
1968191N23088 1968 40 NI BB NOT_NAMED 1968-07-08 18:00:00 TS 22.8000 87.9000 main 0 0 O________O____ jtwc_io IO031968 22.8000 87.9000 -1 22.8000 87.9000 TC 1 55
1968191N23088 1968 40 NI BB NOT_NAMED 1968-07-08 21:00:00 TS 22.8325 87.9375 main 0 0 P________P____ IO031968 22.8325 87.9375 -1 22.8325 87.9375 TC 1 40
1968191N23088 1968 40 NI BB NOT_NAMED 1968-07-09 00:00:00 TS 22.9000 88.0000 main 0 0 O________O____ jtwc_io IO031968 22.9000 88.0000 -1 22.9000 88.0000 TC 25 2 38
1968191N23088 1968 40 NI BB NOT_NAMED 1968-07-09 03:00:00 TS 23.0245 88.1000 main 0 0 P________PO___ IO031968 23.0275 88.1000 -1 23.0275 88.1000 TC 25 23.0000 88.1000 1 3 30
1968191N23088 1968 40 NI BB NOT_NAMED 1968-07-09 06:00:00 TS 23.1997 88.1928 main 0 0 O________OP___ jtwc_io IO031968 23.2000 88.2000 -1 23.2000 88.2000 TC 25 23.1984 88.1640 1 4 19
1968191N23088 1968 40 NI BB NOT_NAMED 1968-07-09 09:00:00 TS 23.3939 88.2453 main 0 0 P________PP___ IO031968 23.3925 88.2501 -1 23.3925 88.2501 TC 25 23.3975 88.2325 1 4 15
1968191N23088 1968 40 NI BB NOT_NAMED 1968-07-09 12:00:00 TS 23.5993 88.3032 main 0 0 O________OP___ jtwc_io IO031968 23.6000 88.3000 -1 23.6000 88.3000 TC 25 23.5978 88.3097 1 4 18
1968191N23088 1968 40 NI BB NOT_NAMED 1968-07-09 15:00:00 TS 23.8000 88.3900 main 0 0 P________PO___ IO031968 23.8000 88.3850 -1 23.8000 88.3850 TC 25 23.8000 88.4000 1 4 24
1968191N23088 1968 40 NI BB NOT_NAMED 1968-07-09 18:00:00 TS 24.0008 88.5022 main 0 0 O________OP___ jtwc_io IO031968 24.0000 88.5000 -1 24.0000 88.5000 TC 25 24.0025 88.5065 1 5 30
1968191N23088 1968 40 NI BB NOT_NAMED 1968-07-09 21:00:00 TS 24.2083 88.6424 main 0 0 P________PP___ IO031968 24.2150 88.6499 -1 24.2150 88.6499 TC 25 24.1950 88.6273 1 5 34
1968191N23088 1968 40 NI BB NOT_NAMED 1968-07-10 00:00:00 TS 24.3883 88.7865 main 0 0 O________OP___ jtwc_io IO031968 24.4000 88.8000 -1 24.4000 88.8000 TC 25 24.3650 88.7596 1 4 37
1968191N23088 1968 40 NI BB NOT_NAMED 1968-07-10 03:00:00 TS 24.5150 88.9001 main 0 0 P________PO___ IO031968 24.5225 88.9001 -1 24.5225 88.9001 TC 25 24.5000 88.9000 1 3 45
1968191N23088 1968 40 NI BB NOT_NAMED 1968-07-10 06:00:00 TS 24.5967 89.0143 main 0 0 O________OP___ jtwc_io IO031968 24.6000 89.0000 -1 24.6000 89.0000 TC 25 24.5900 89.0430 1 3 58
1968191N23088 1968 40 NI BB NOT_NAMED 1968-07-10 09:00:00 TS 24.6583 89.1592 main 0 0 P________PP___ IO031968 24.6650 89.1425 -1 24.6650 89.1425 TC 25 24.6450 89.1927 1 3 71
1968191N23088 1968 40 NI BB NOT_NAMED 1968-07-10 12:00:00 TS 24.6925 89.3154 main 0 0 O________OP___ jtwc_io IO031968 24.7000 89.3000 -1 24.7000 89.3000 TC 25 24.6775 89.3461 1 3 82
1968191N23088 1968 40 NI BB NOT_NAMED 1968-07-10 15:00:00 TS 24.7000 89.4667 main 0 0 P________PO___ IO031968 24.7000 89.4501 -1 24.7000 89.4501 TC 25 24.7000 89.5000 1 3 86
1968191N23088 1968 40 NI BB NOT_NAMED 1968-07-10 18:00:00 TS 24.7093 89.6153 main 0 0 O________OP___ jtwc_io IO031968 24.7000 89.6000 -1 24.7000 89.6000 TC 25 24.7281 89.6460 1 3 79
1968191N23088 1968 40 NI BB NOT_NAMED 1968-07-10 21:00:00 TS 24.7499 89.7592 main 0 0 P________PP___ IO031968 24.7500 89.7425 -1 24.7500 89.7425 TC 25 24.7499 89.7926 1 3 73
1968191N23088 1968 40 NI BB NOT_NAMED 1968-07-11 00:00:00 TS 24.7906 89.9143 main 0 0 O________OP___ jtwc_io IO031968 24.8000 89.9000 -1 24.8000 89.9000 TC 25 24.7718 89.9429 1 3 81
1968191N23088 1968 40 NI BB NOT_NAMED 1968-07-11 03:00:00 TS 24.8000 90.1000 main 0 0 P________PO___ IO031968 24.8000 90.1001 -1 24.8000 90.1001 TC 25 24.8000 90.1000 1 3 86
1968191N23088 1968 40 NI BB NOT_NAMED 1968-07-11 06:00:00 TS 24.8157 90.2865 main 0 0 O________OP___ jtwc_io IO031968 24.8000 90.3000 -1 24.8000 90.3000 TC 25 24.8392 90.2661 1 3 80
1968191N23088 1968 40 NI BB NOT_NAMED 1968-07-11 09:00:00 TS 24.8590 90.4527 main 0 0 P________PP___ IO031968 24.8375 90.4624 -1 24.8375 90.4624 TC 25 24.8877 90.4398 1 3 70
1968191N23088 1968 40 NI BB NOT_NAMED 1968-07-11 12:00:00 TS 24.9212 90.6093 main 0 0 O________OP___ jtwc_io IO031968 24.9000 90.6000 -1 24.9000 90.6000 TC 25 24.9424 90.6186 1 3 66
1968191N23088 1968 40 NI BB NOT_NAMED 1968-07-11 15:00:00 NR 25.0000 90.8000 main 0 __________O___ IO031968 -1 TC 25.0000 90.8000 1 4 65

IBTrACS Databaseについて

本データベースは、米国NOAAが公開する1842年以降の世界の熱帯低気圧のベストトラックデータアーカイブInternational Best Track Archive for Climate Stewardship (IBTrACS)を、ウェブで閲覧しやすい形式に変換したものです。

最終更新日:2021-12-08